sensor_id;sensor_type;location;lat;lon;timestamp;P1;durP1;ratioP1;P2;durP2;ratioP2
60169;SDS011;46042;49.444;6.862;2022-10-16T00:00:35;2.15;;;1.20;;
60169;SDS011;46042;49.444;6.862;2022-10-16T00:03:04;2.33;;;1.20;;
60169;SDS011;46042;49.444;6.862;2022-10-16T00:05:31;3.67;;;1.27;;
60169;SDS011;46042;49.444;6.862;2022-10-16T00:07:58;2.40;;;1.33;;
60169;SDS011;46042;49.444;6.862;2022-10-16T00:10:25;1.30;;;1.20;;
60169;SDS011;46042;49.444;6.862;2022-10-16T00:12:51;2.17;;;1.33;;
60169;SDS011;46042;49.444;6.862;2022-10-16T00:15:18;1.15;;;1.02;;
60169;SDS011;46042;49.444;6.862;2022-10-16T00:17:45;1.10;;;1.00;;
60169;SDS011;46042;49.444;6.862;2022-10-16T00:20:11;3.78;;;1.20;;
60169;SDS011;46042;49.444;6.862;2022-10-16T00:22:38;1.45;;;1.00;;
60169;SDS011;46042;49.444;6.862;2022-10-16T00:25:04;3.42;;;1.17;;
60169;SDS011;46042;49.444;6.862;2022-10-16T00:27:31;2.00;;;1.17;;
60169;SDS011;46042;49.444;6.862;2022-10-16T00:29:57;3.38;;;1.30;;
60169;SDS011;46042;49.444;6.862;2022-10-16T00:32:24;2.70;;;1.05;;
60169;SDS011;46042;49.444;6.862;2022-10-16T00:34:51;1.17;;;1.02;;
60169;SDS011;46042;49.444;6.862;2022-10-16T00:37:20;3.53;;;1.30;;
60169;SDS011;46042;49.444;6.862;2022-10-16T00:39:47;1.05;;;1.00;;
60169;SDS011;46042;49.444;6.862;2022-10-16T00:42:17;1.85;;;1.30;;
60169;SDS011;46042;49.444;6.862;2022-10-16T00:47:20;6.45;;;1.40;;
60169;SDS011;46042;49.444;6.862;2022-10-16T00:50:08;1.63;;;1.10;;
60169;SDS011;46042;49.444;6.862;2022-10-16T00:55:06;3.38;;;1.10;;
60169;SDS011;46042;49.444;6.862;2022-10-16T00:57:35;2.78;;;1.10;;
60169;SDS011;46042;49.444;6.862;2022-10-16T01:00:04;6.65;;;1.40;;
60169;SDS011;46042;49.444;6.862;2022-10-16T01:02:34;4.38;;;1.33;;
60169;SDS011;46042;49.444;6.862;2022-10-16T01:05:01;4.47;;;1.35;;
60169;SDS011;46042;49.444;6.862;2022-10-16T01:07:45;2.38;;;1.17;;
60169;SDS011;46042;49.444;6.862;2022-10-16T01:10:27;3.05;;;1.25;;
60169;SDS011;46042;49.444;6.862;2022-10-16T01:13:07;2.70;;;0.95;;
60169;SDS011;46042;49.444;6.862;2022-10-16T01:15:40;2.28;;;2.15;;
60169;SDS011;46042;49.444;6.862;2022-10-16T01:21:10;0.93;;;0.85;;
60169;SDS011;46042;49.444;6.862;2022-10-16T01:29:52;1.75;;;1.20;;
60169;SDS011;46042;49.444;6.862;2022-10-16T01:32:32;1.63;;;1.30;;
60169;SDS011;46042;49.444;6.862;2022-10-16T01:37:40;2.70;;;1.15;;
60169;SDS011;46042;49.444;6.862;2022-10-16T01:40:13;1.30;;;1.20;;
60169;SDS011;46042;49.444;6.862;2022-10-16T01:42:42;2.15;;;1.20;;
60169;SDS011;46042;49.444;6.862;2022-10-16T01:45:14;1.23;;;1.13;;
60169;SDS011;46042;49.444;6.862;2022-10-16T01:47:45;6.70;;;1.33;;
60169;SDS011;46042;49.444;6.862;2022-10-16T01:50:14;2.17;;;1.20;;
60169;SDS011;46042;49.444;6.862;2022-10-16T01:52:43;1.40;;;1.23;;
60169;SDS011;46042;49.444;6.862;2022-10-16T01:55:15;1.88;;;1.40;;
60169;SDS011;46042;49.444;6.862;2022-10-16T01:57:46;1.30;;;1.20;;
60169;SDS011;46042;49.444;6.862;2022-10-16T02:00:18;9.55;;;1.77;;
60169;SDS011;46042;49.444;6.862;2022-10-16T02:02:48;1.30;;;1.20;;
60169;SDS011;46042;49.444;6.862;2022-10-16T02:05:23;3.38;;;1.25;;
60169;SDS011;46042;49.444;6.862;2022-10-16T02:07:54;2.05;;;1.30;;
60169;SDS011;46042;49.444;6.862;2022-10-16T02:10:23;2.17;;;1.30;;
60169;SDS011;46042;49.444;6.862;2022-10-16T02:12:56;2.92;;;1.30;;
60169;SDS011;46042;49.444;6.862;2022-10-16T02:15:25;6.70;;;1.50;;
60169;SDS011;46042;49.444;6.862;2022-10-16T02:17:52;1.90;;;1.45;;
60169;SDS011;46042;49.444;6.862;2022-10-16T02:20:19;2.55;;;1.48;;
60169;SDS011;46042;49.444;6.862;2022-10-16T02:22:51;3.85;;;1.30;;
60169;SDS011;46042;49.444;6.862;2022-10-16T02:25:53;4.03;;;1.55;;
60169;SDS011;46042;49.444;6.862;2022-10-16T02:28:17;3.78;;;1.38;;
60169;SDS011;46042;49.444;6.862;2022-10-16T02:30:56;2.75;;;1.58;;
60169;SDS011;46042;49.444;6.862;2022-10-16T02:33:25;7.15;;;1.92;;
60169;SDS011;46042;49.444;6.862;2022-10-16T02:35:54;2.15;;;1.40;;
60169;SDS011;46042;49.444;6.862;2022-10-16T02:38:22;1.60;;;1.50;;
60169;SDS011;46042;49.444;6.862;2022-10-16T02:40:50;3.67;;;1.45;;
60169;SDS011;46042;49.444;6.862;2022-10-16T02:43:17;3.78;;;1.98;;
60169;SDS011;46042;49.444;6.862;2022-10-16T02:45:44;2.10;;;1.25;;
60169;SDS011;46042;49.444;6.862;2022-10-16T02:48:11;1.77;;;1.55;;
60169;SDS011;46042;49.444;6.862;2022-10-16T02:50:37;3.05;;;1.55;;
60169;SDS011;46042;49.444;6.862;2022-10-16T02:53:04;4.75;;;2.03;;
60169;SDS011;46042;49.444;6.862;2022-10-16T02:55:30;5.18;;;1.50;;
60169;SDS011;46042;49.444;6.862;2022-10-16T02:57:57;1.80;;;1.55;;
60169;SDS011;46042;49.444;6.862;2022-10-16T03:00:24;2.03;;;1.60;;
60169;SDS011;46042;49.444;6.862;2022-10-16T03:02:50;3.22;;;1.67;;
60169;SDS011;46042;49.444;6.862;2022-10-16T03:05:17;5.60;;;1.88;;
60169;SDS011;46042;49.444;6.862;2022-10-16T03:07:44;4.00;;;1.63;;
60169;SDS011;46042;49.444;6.862;2022-10-16T03:10:10;2.95;;;1.60;;
60169;SDS011;46042;49.444;6.862;2022-10-16T03:12:37;2.47;;;1.75;;
60169;SDS011;46042;49.444;6.862;2022-10-16T03:15:04;5.03;;;1.95;;
60169;SDS011;46042;49.444;6.862;2022-10-16T03:17:31;4.95;;;1.48;;
60169;SDS011;46042;49.444;6.862;2022-10-16T03:19:58;7.10;;;1.80;;
60169;SDS011;46042;49.444;6.862;2022-10-16T03:22:25;3.17;;;1.65;;
60169;SDS011;46042;49.444;6.862;2022-10-16T03:24:51;5.20;;;1.73;;
60169;SDS011;46042;49.444;6.862;2022-10-16T03:27:18;3.75;;;1.70;;
60169;SDS011;46042;49.444;6.862;2022-10-16T03:29:45;2.75;;;1.70;;
60169;SDS011;46042;49.444;6.862;2022-10-16T03:32:11;9.10;;;2.08;;
60169;SDS011;46042;49.444;6.862;2022-10-16T03:34:38;3.63;;;1.70;;
60169;SDS011;46042;49.444;6.862;2022-10-16T03:37:04;5.15;;;2.70;;
60169;SDS011;46042;49.444;6.862;2022-10-16T03:39:31;8.15;;;1.90;;
60169;SDS011;46042;49.444;6.862;2022-10-16T03:41:58;1.70;;;1.45;;
60169;SDS011;46042;49.444;6.862;2022-10-16T03:44:24;2.10;;;1.52;;
60169;SDS011;46042;49.444;6.862;2022-10-16T03:46:51;4.00;;;1.60;;
60169;SDS011;46042;49.444;6.862;2022-10-16T03:49:17;5.20;;;1.42;;
60169;SDS011;46042;49.444;6.862;2022-10-16T03:51:44;2.90;;;1.52;;
60169;SDS011;46042;49.444;6.862;2022-10-16T03:54:11;1.77;;;1.60;;
60169;SDS011;46042;49.444;6.862;2022-10-16T03:56:38;5.15;;;2.15;;
60169;SDS011;46042;49.444;6.862;2022-10-16T03:59:04;5.43;;;1.80;;
60169;SDS011;46042;49.444;6.862;2022-10-16T04:01:31;2.38;;;1.58;;
60169;SDS011;46042;49.444;6.862;2022-10-16T04:03:57;5.93;;;1.60;;
60169;SDS011;46042;49.444;6.862;2022-10-16T04:06:24;4.13;;;1.52;;
60169;SDS011;46042;49.444;6.862;2022-10-16T04:08:51;1.50;;;1.40;;
60169;SDS011;46042;49.444;6.862;2022-10-16T04:11:18;3.55;;;1.40;;
60169;SDS011;46042;49.444;6.862;2022-10-16T04:13:44;6.63;;;1.52;;
60169;SDS011;46042;49.444;6.862;2022-10-16T04:16:11;2.17;;;1.50;;
60169;SDS011;46042;49.444;6.862;2022-10-16T04:18:38;2.72;;;1.60;;
60169;SDS011;46042;49.444;6.862;2022-10-16T04:21:05;5.93;;;1.52;;
60169;SDS011;46042;49.444;6.862;2022-10-16T04:23:32;4.55;;;1.40;;
60169;SDS011;46042;49.444;6.862;2022-10-16T04:25:59;5.82;;;1.70;;
60169;SDS011;46042;49.444;6.862;2022-10-16T04:28:26;5.47;;;1.98;;
60169;SDS011;46042;49.444;6.862;2022-10-16T04:30:53;1.50;;;1.35;;
60169;SDS011;46042;49.444;6.862;2022-10-16T04:33:20;5.80;;;1.85;;
60169;SDS011;46042;49.444;6.862;2022-10-16T04:35:47;4.55;;;1.60;;
60169;SDS011;46042;49.444;6.862;2022-10-16T04:38:13;1.35;;;1.25;;
60169;SDS011;46042;49.444;6.862;2022-10-16T04:40:41;6.57;;;1.48;;
60169;SDS011;46042;49.444;6.862;2022-10-16T04:43:08;4.20;;;1.27;;
60169;SDS011;46042;49.444;6.862;2022-10-16T04:45:35;2.70;;;1.40;;
60169;SDS011;46042;49.444;6.862;2022-10-16T04:48:02;3.08;;;1.45;;
60169;SDS011;46042;49.444;6.862;2022-10-16T04:50:28;3.25;;;1.50;;
60169;SDS011;46042;49.444;6.862;2022-10-16T04:52:55;5.40;;;1.17;;
60169;SDS011;46042;49.444;6.862;2022-10-16T04:55:21;1.25;;;1.15;;
60169;SDS011;46042;49.444;6.862;2022-10-16T04:57:48;1.15;;;1.05;;
60169;SDS011;46042;49.444;6.862;2022-10-16T05:00:15;3.28;;;1.30;;
60169;SDS011;46042;49.444;6.862;2022-10-16T05:02:42;1.20;;;1.10;;
60169;SDS011;46042;49.444;6.862;2022-10-16T05:05:09;10.32;;;1.38;;
60169;SDS011;46042;49.444;6.862;2022-10-16T05:07:35;4.47;;;1.20;;
60169;SDS011;46042;49.444;6.862;2022-10-16T05:10:02;3.78;;;1.27;;
60169;SDS011;46042;49.444;6.862;2022-10-16T05:12:29;2.05;;;1.20;;
60169;SDS011;46042;49.444;6.862;2022-10-16T05:14:55;2.83;;;1.40;;
60169;SDS011;46042;49.444;6.862;2022-10-16T05:17:25;4.13;;;1.50;;
60169;SDS011;46042;49.444;6.862;2022-10-16T05:19:53;6.35;;;1.67;;
60169;SDS011;46042;49.444;6.862;2022-10-16T05:22:20;1.45;;;1.33;;
60169;SDS011;46042;49.444;6.862;2022-10-16T05:24:46;4.18;;;1.60;;
60169;SDS011;46042;49.444;6.862;2022-10-16T05:27:13;2.00;;;1.50;;
60169;SDS011;46042;49.444;6.862;2022-10-16T05:29:45;4.35;;;1.48;;
60169;SDS011;46042;49.444;6.862;2022-10-16T05:32:13;1.90;;;1.40;;
60169;SDS011;46042;49.444;6.862;2022-10-16T05:34:43;2.70;;;1.52;;
60169;SDS011;46042;49.444;6.862;2022-10-16T05:37:11;4.28;;;1.30;;
60169;SDS011;46042;49.444;6.862;2022-10-16T05:39:38;6.18;;;1.58;;
60169;SDS011;46042;49.444;6.862;2022-10-16T05:42:05;7.78;;;1.83;;
60169;SDS011;46042;49.444;6.862;2022-10-16T05:44:32;7.97;;;1.55;;
60169;SDS011;46042;49.444;6.862;2022-10-16T05:47:04;6.63;;;1.48;;
60169;SDS011;46042;49.444;6.862;2022-10-16T05:49:30;1.58;;;1.20;;
60169;SDS011;46042;49.444;6.862;2022-10-16T05:51:57;2.50;;;1.33;;
60169;SDS011;46042;49.444;6.862;2022-10-16T05:54:24;3.67;;;1.60;;
60169;SDS011;46042;49.444;6.862;2022-10-16T05:56:50;1.83;;;1.40;;
60169;SDS011;46042;49.444;6.862;2022-10-16T05:59:17;5.63;;;2.00;;
60169;SDS011;46042;49.444;6.862;2022-10-16T06:01:43;4.35;;;1.70;;
60169;SDS011;46042;49.444;6.862;2022-10-16T06:04:10;6.32;;;1.70;;
60169;SDS011;46042;49.444;6.862;2022-10-16T06:06:42;2.00;;;1.58;;
60169;SDS011;46042;49.444;6.862;2022-10-16T06:09:08;1.98;;;1.40;;
60169;SDS011;46042;49.444;6.862;2022-10-16T06:11:35;1.70;;;1.33;;
60169;SDS011;46042;49.444;6.862;2022-10-16T06:14:02;2.88;;;1.40;;
60169;SDS011;46042;49.444;6.862;2022-10-16T06:16:33;1.35;;;1.25;;
60169;SDS011;46042;49.444;6.862;2022-10-16T06:19:01;1.33;;;1.23;;
60169;SDS011;46042;49.444;6.862;2022-10-16T06:21:32;3.88;;;1.50;;
60169;SDS011;46042;49.444;6.862;2022-10-16T06:23:59;5.13;;;1.40;;
60169;SDS011;46042;49.444;6.862;2022-10-16T06:26:26;1.92;;;1.50;;
60169;SDS011;46042;49.444;6.862;2022-10-16T06:28:55;3.40;;;1.55;;
60169;SDS011;46042;49.444;6.862;2022-10-16T06:31:23;4.03;;;1.35;;
60169;SDS011;46042;49.444;6.862;2022-10-16T06:33:53;6.32;;;1.63;;
60169;SDS011;46042;49.444;6.862;2022-10-16T06:36:20;3.47;;;1.38;;
60169;SDS011;46042;49.444;6.862;2022-10-16T06:38:47;2.10;;;1.33;;
60169;SDS011;46042;49.444;6.862;2022-10-16T06:41:15;2.35;;;1.50;;
60169;SDS011;46042;49.444;6.862;2022-10-16T06:43:43;2.30;;;1.70;;
60169;SDS011;46042;49.444;6.862;2022-10-16T06:46:12;5.97;;;2.55;;
60169;SDS011;46042;49.444;6.862;2022-10-16T06:48:40;3.72;;;2.20;;
60169;SDS011;46042;49.444;6.862;2022-10-16T06:53:39;3.72;;;2.10;;
60169;SDS011;46042;49.444;6.862;2022-10-16T06:56:27;1.75;;;1.50;;
60169;SDS011;46042;49.444;6.862;2022-10-16T06:58:56;6.60;;;2.05;;
60169;SDS011;46042;49.444;6.862;2022-10-16T07:01:23;6.43;;;2.28;;
60169;SDS011;46042;49.444;6.862;2022-10-16T07:03:51;5.18;;;2.60;;
60169;SDS011;46042;49.444;6.862;2022-10-16T07:06:19;2.50;;;2.20;;
60169;SDS011;46042;49.444;6.862;2022-10-16T07:08:47;7.43;;;2.88;;
60169;SDS011;46042;49.444;6.862;2022-10-16T07:11:15;2.83;;;2.00;;
60169;SDS011;46042;49.444;6.862;2022-10-16T07:13:44;4.32;;;2.00;;
60169;SDS011;46042;49.444;6.862;2022-10-16T07:16:20;5.78;;;2.28;;
60169;SDS011;46042;49.444;6.862;2022-10-16T07:18:49;4.68;;;2.30;;
60169;SDS011;46042;49.444;6.862;2022-10-16T07:21:21;11.32;;;2.20;;
60169;SDS011;46042;49.444;6.862;2022-10-16T07:24:10;5.68;;;2.40;;
60169;SDS011;46042;49.444;6.862;2022-10-16T07:26:39;7.78;;;2.65;;
60169;SDS011;46042;49.444;6.862;2022-10-16T07:29:11;3.45;;;2.13;;
60169;SDS011;46042;49.444;6.862;2022-10-16T07:31:40;3.30;;;2.03;;
60169;SDS011;46042;49.444;6.862;2022-10-16T07:34:07;4.60;;;2.58;;
60169;SDS011;46042;49.444;6.862;2022-10-16T07:36:33;3.53;;;2.22;;
60169;SDS011;46042;49.444;6.862;2022-10-16T07:39:00;4.38;;;2.25;;
60169;SDS011;46042;49.444;6.862;2022-10-16T07:41:27;5.25;;;2.30;;
60169;SDS011;46042;49.444;6.862;2022-10-16T07:43:54;6.30;;;2.97;;
60169;SDS011;46042;49.444;6.862;2022-10-16T07:46:22;7.13;;;2.80;;
60169;SDS011;46042;49.444;6.862;2022-10-16T07:48:49;12.68;;;3.78;;
60169;SDS011;46042;49.444;6.862;2022-10-16T07:51:17;3.90;;;2.95;;
60169;SDS011;46042;49.444;6.862;2022-10-16T07:53:45;11.75;;;3.17;;
60169;SDS011;46042;49.444;6.862;2022-10-16T07:56:13;5.95;;;3.38;;
60169;SDS011;46042;49.444;6.862;2022-10-16T07:58:41;7.00;;;3.35;;
60169;SDS011;46042;49.444;6.862;2022-10-16T08:01:08;6.65;;;3.08;;
60169;SDS011;46042;49.444;6.862;2022-10-16T08:03:37;5.82;;;3.10;;
60169;SDS011;46042;49.444;6.862;2022-10-16T08:06:03;6.63;;;3.05;;
60169;SDS011;46042;49.444;6.862;2022-10-16T08:08:31;5.13;;;2.95;;
60169;SDS011;46042;49.444;6.862;2022-10-16T08:10:57;3.25;;;2.38;;
60169;SDS011;46042;49.444;6.862;2022-10-16T08:13:24;5.07;;;2.55;;
60169;SDS011;46042;49.444;6.862;2022-10-16T08:15:53;8.90;;;2.60;;
60169;SDS011;46042;49.444;6.862;2022-10-16T08:18:20;7.07;;;2.85;;
60169;SDS011;46042;49.444;6.862;2022-10-16T08:20:48;2.60;;;1.95;;
60169;SDS011;46042;49.444;6.862;2022-10-16T08:23:20;3.60;;;2.03;;
60169;SDS011;46042;49.444;6.862;2022-10-16T08:25:47;2.10;;;1.80;;
60169;SDS011;46042;49.444;6.862;2022-10-16T08:28:14;3.58;;;2.10;;
60169;SDS011;46042;49.444;6.862;2022-10-16T08:30:41;3.47;;;2.50;;
60169;SDS011;46042;49.444;6.862;2022-10-16T08:33:08;4.40;;;2.30;;
60169;SDS011;46042;49.444;6.862;2022-10-16T08:35:34;3.58;;;2.47;;
60169;SDS011;46042;49.444;6.862;2022-10-16T08:38:05;3.92;;;2.53;;
60169;SDS011;46042;49.444;6.862;2022-10-16T08:51:24;6.60;;;3.10;;
60169;SDS011;46042;49.444;6.862;2022-10-16T08:53:54;4.95;;;3.53;;
60169;SDS011;46042;49.444;6.862;2022-10-16T08:56:24;7.40;;;4.90;;
60169;SDS011;46042;49.444;6.862;2022-10-16T08:58:52;6.13;;;4.70;;
60169;SDS011;46042;49.444;6.862;2022-10-16T09:01:36;7.90;;;5.00;;
60169;SDS011;46042;49.444;6.862;2022-10-16T09:07:00;7.80;;;5.35;;
60169;SDS011;46042;49.444;6.862;2022-10-16T09:12:08;8.20;;;4.57;;
60169;SDS011;46042;49.444;6.862;2022-10-16T09:20:19;13.98;;;6.30;;
60169;SDS011;46042;49.444;6.862;2022-10-16T09:23:12;10.50;;;5.45;;
60169;SDS011;46042;49.444;6.862;2022-10-16T09:25:42;7.25;;;4.82;;
60169;SDS011;46042;49.444;6.862;2022-10-16T09:28:11;8.30;;;5.00;;
60169;SDS011;46042;49.444;6.862;2022-10-16T09:30:37;9.40;;;4.50;;
60169;SDS011;46042;49.444;6.862;2022-10-16T09:33:06;8.82;;;5.53;;
60169;SDS011;46042;49.444;6.862;2022-10-16T09:35:38;11.13;;;5.40;;
60169;SDS011;46042;49.444;6.862;2022-10-16T09:38:06;10.30;;;5.63;;
60169;SDS011;46042;49.444;6.862;2022-10-16T09:40:37;8.05;;;5.40;;
60169;SDS011;46042;49.444;6.862;2022-10-16T09:43:15;10.10;;;5.60;;
60169;SDS011;46042;49.444;6.862;2022-10-16T09:45:56;12.85;;;5.55;;
60169;SDS011;46042;49.444;6.862;2022-10-16T09:48:26;9.73;;;5.75;;
60169;SDS011;46042;49.444;6.862;2022-10-16T09:50:58;15.25;;;6.63;;
60169;SDS011;46042;49.444;6.862;2022-10-16T09:53:37;15.38;;;7.13;;
60169;SDS011;46042;49.444;6.862;2022-10-16T09:56:05;12.80;;;6.63;;
60169;SDS011;46042;49.444;6.862;2022-10-16T09:58:38;10.98;;;7.25;;
60169;SDS011;46042;49.444;6.862;2022-10-16T10:01:12;10.93;;;7.82;;
60169;SDS011;46042;49.444;6.862;2022-10-16T10:03:42;17.40;;;8.40;;
60169;SDS011;46042;49.444;6.862;2022-10-16T10:06:44;19.75;;;7.78;;
60169;SDS011;46042;49.444;6.862;2022-10-16T10:09:23;13.88;;;7.60;;
60169;SDS011;46042;49.444;6.862;2022-10-16T10:11:56;11.65;;;6.65;;
60169;SDS011;46042;49.444;6.862;2022-10-16T10:14:31;9.63;;;6.38;;
60169;SDS011;46042;49.444;6.862;2022-10-16T10:19:29;11.50;;;5.75;;
60169;SDS011;46042;49.444;6.862;2022-10-16T10:21:58;10.68;;;6.78;;
60169;SDS011;46042;49.444;6.862;2022-10-16T10:24:24;9.70;;;6.30;;
60169;SDS011;46042;49.444;6.862;2022-10-16T10:27:03;10.27;;;6.10;;
60169;SDS011;46042;49.444;6.862;2022-10-16T10:29:41;12.15;;;6.22;;
60169;SDS011;46042;49.444;6.862;2022-10-16T10:35:34;13.18;;;7.55;;
60169;SDS011;46042;49.444;6.862;2022-10-16T10:44:01;15.32;;;7.78;;
60169;SDS011;46042;49.444;6.862;2022-10-16T10:46:56;10.25;;;7.38;;
60169;SDS011;46042;49.444;6.862;2022-10-16T10:49:31;9.18;;;6.90;;
60169;SDS011;46042;49.444;6.862;2022-10-16T11:01:26;9.77;;;5.93;;
60169;SDS011;46042;49.444;6.862;2022-10-16T11:07:00;8.02;;;5.13;;
60169;SDS011;46042;49.444;6.862;2022-10-16T11:09:34;10.88;;;4.85;;
60169;SDS011;46042;49.444;6.862;2022-10-16T11:12:07;7.32;;;4.95;;
60169;SDS011;46042;49.444;6.862;2022-10-16T11:15:03;9.55;;;5.90;;
60169;SDS011;46042;49.444;6.862;2022-10-16T11:17:35;9.02;;;5.55;;
60169;SDS011;46042;49.444;6.862;2022-10-16T11:20:16;8.00;;;5.18;;
60169;SDS011;46042;49.444;6.862;2022-10-16T11:25:27;6.70;;;4.45;;
60169;SDS011;46042;49.444;6.862;2022-10-16T11:31:29;6.38;;;4.80;;
60169;SDS011;46042;49.444;6.862;2022-10-16T11:33:44;9.82;;;4.95;;
60169;SDS011;46042;49.444;6.862;2022-10-16T11:36:16;9.38;;;5.40;;
60169;SDS011;46042;49.444;6.862;2022-10-16T11:47:34;8.07;;;4.78;;
60169;SDS011;46042;49.444;6.862;2022-10-16T11:50:25;5.72;;;3.97;;
60169;SDS011;46042;49.444;6.862;2022-10-16T11:55:40;7.90;;;3.90;;
60169;SDS011;46042;49.444;6.862;2022-10-16T12:00:51;6.20;;;3.70;;
60169;SDS011;46042;49.444;6.862;2022-10-16T12:08:45;5.25;;;3.40;;
60169;SDS011;46042;49.444;6.862;2022-10-16T12:11:24;5.68;;;2.90;;
60169;SDS011;46042;49.444;6.862;2022-10-16T12:20:18;5.68;;;3.80;;
60169;SDS011;46042;49.444;6.862;2022-10-16T12:22:59;8.93;;;3.58;;
60169;SDS011;46042;49.444;6.862;2022-10-16T12:27:55;6.38;;;3.55;;
60169;SDS011;46042;49.444;6.862;2022-10-16T12:30:27;6.97;;;3.70;;
60169;SDS011;46042;49.444;6.862;2022-10-16T12:33:02;6.78;;;4.18;;
60169;SDS011;46042;49.444;6.862;2022-10-16T12:35:32;13.52;;;4.15;;
60169;SDS011;46042;49.444;6.862;2022-10-16T12:38:06;9.90;;;4.10;;
60169;SDS011;46042;49.444;6.862;2022-10-16T12:40:35;9.82;;;4.07;;
60169;SDS011;46042;49.444;6.862;2022-10-16T12:43:23;14.30;;;4.25;;
60169;SDS011;46042;49.444;6.862;2022-10-16T12:48:25;9.80;;;3.85;;
60169;SDS011;46042;49.444;6.862;2022-10-16T12:54:00;5.55;;;3.35;;
60169;SDS011;46042;49.444;6.862;2022-10-16T12:56:52;9.68;;;3.83;;
60169;SDS011;46042;49.444;6.862;2022-10-16T13:02:04;11.43;;;4.00;;
60169;SDS011;46042;49.444;6.862;2022-10-16T13:13:26;8.02;;;4.30;;
60169;SDS011;46042;49.444;6.862;2022-10-16T13:16:26;10.85;;;4.57;;
60169;SDS011;46042;49.444;6.862;2022-10-16T13:27:14;7.22;;;4.07;;
60169;SDS011;46042;49.444;6.862;2022-10-16T13:30:02;4.47;;;3.33;;
60169;SDS011;46042;49.444;6.862;2022-10-16T13:32:39;5.97;;;3.55;;
60169;SDS011;46042;49.444;6.862;2022-10-16T13:35:20;7.93;;;4.20;;
60169;SDS011;46042;49.444;6.862;2022-10-16T13:37:49;10.10;;;4.22;;
60169;SDS011;46042;49.444;6.862;2022-10-16T13:40:20;8.75;;;3.58;;
60169;SDS011;46042;49.444;6.862;2022-10-16T13:42:49;4.82;;;3.50;;
60169;SDS011;46042;49.444;6.862;2022-10-16T13:45:20;5.75;;;3.33;;
60169;SDS011;46042;49.444;6.862;2022-10-16T13:47:49;8.43;;;3.53;;
60169;SDS011;46042;49.444;6.862;2022-10-16T13:50:17;6.68;;;3.50;;
60169;SDS011;46042;49.444;6.862;2022-10-16T13:52:45;11.23;;;3.60;;
60169;SDS011;46042;49.444;6.862;2022-10-16T13:55:12;4.65;;;2.95;;
60169;SDS011;46042;49.444;6.862;2022-10-16T13:57:40;7.28;;;3.08;;
60169;SDS011;46042;49.444;6.862;2022-10-16T14:00:21;7.40;;;3.28;;
60169;SDS011;46042;49.444;6.862;2022-10-16T14:02:57;11.52;;;4.03;;
60169;SDS011;46042;49.444;6.862;2022-10-16T14:05:28;8.20;;;4.10;;
60169;SDS011;46042;49.444;6.862;2022-10-16T14:07:54;9.65;;;5.20;;
60169;SDS011;46042;49.444;6.862;2022-10-16T14:10:30;7.45;;;4.18;;
60169;SDS011;46042;49.444;6.862;2022-10-16T14:13:05;4.57;;;3.13;;
60169;SDS011;46042;49.444;6.862;2022-10-16T14:15:35;4.82;;;2.88;;
60169;SDS011;46042;49.444;6.862;2022-10-16T14:18:03;4.75;;;3.10;;
60169;SDS011;46042;49.444;6.862;2022-10-16T14:20:30;8.75;;;3.22;;
60169;SDS011;46042;49.444;6.862;2022-10-16T14:25:47;5.80;;;4.45;;
60169;SDS011;46042;49.444;6.862;2022-10-16T14:28:21;4.07;;;2.88;;
60169;SDS011;46042;49.444;6.862;2022-10-16T14:30:49;9.38;;;3.22;;
60169;SDS011;46042;49.444;6.862;2022-10-16T14:40:58;6.18;;;2.97;;
60169;SDS011;46042;49.444;6.862;2022-10-16T14:43:33;6.63;;;2.80;;
60169;SDS011;46042;49.444;6.862;2022-10-16T14:46:03;15.50;;;3.30;;
60169;SDS011;46042;49.444;6.862;2022-10-16T14:48:41;8.82;;;3.65;;
60169;SDS011;46042;49.444;6.862;2022-10-16T14:51:16;8.90;;;3.70;;
60169;SDS011;46042;49.444;6.862;2022-10-16T14:53:44;9.20;;;3.42;;
60169;SDS011;46042;49.444;6.862;2022-10-16T14:56:18;10.50;;;3.58;;
60169;SDS011;46042;49.444;6.862;2022-10-16T14:58:47;7.90;;;3.42;;
60169;SDS011;46042;49.444;6.862;2022-10-16T15:01:16;3.78;;;3.00;;
60169;SDS011;46042;49.444;6.862;2022-10-16T15:03:44;8.43;;;3.40;;
60169;SDS011;46042;49.444;6.862;2022-10-16T15:06:11;7.30;;;3.92;;
60169;SDS011;46042;49.444;6.862;2022-10-16T15:08:39;13.52;;;3.42;;
60169;SDS011;46042;49.444;6.862;2022-10-16T15:11:16;7.88;;;3.38;;
60169;SDS011;46042;49.444;6.862;2022-10-16T15:13:44;10.23;;;3.60;;
60169;SDS011;46042;49.444;6.862;2022-10-16T15:16:12;6.18;;;3.03;;
60169;SDS011;46042;49.444;6.862;2022-10-16T15:18:40;8.88;;;5.22;;
60169;SDS011;46042;49.444;6.862;2022-10-16T15:21:12;6.03;;;3.22;;
60169;SDS011;46042;49.444;6.862;2022-10-16T15:23:52;7.57;;;3.53;;
60169;SDS011;46042;49.444;6.862;2022-10-16T15:26:19;8.15;;;3.63;;
60169;SDS011;46042;49.444;6.862;2022-10-16T15:28:46;12.65;;;3.50;;
60169;SDS011;46042;49.444;6.862;2022-10-16T15:31:13;7.60;;;4.35;;
60169;SDS011;46042;49.444;6.862;2022-10-16T15:33:39;18.90;;;6.55;;
60169;SDS011;46042;49.444;6.862;2022-10-16T15:36:06;17.08;;;8.18;;
60169;SDS011;46042;49.444;6.862;2022-10-16T15:38:34;31.90;;;14.98;;
60169;SDS011;46042;49.444;6.862;2022-10-16T15:41:01;37.65;;;17.65;;
60169;SDS011;46042;49.444;6.862;2022-10-16T15:43:27;16.23;;;8.93;;
60169;SDS011;46042;49.444;6.862;2022-10-16T15:46:02;19.48;;;7.72;;
60169;SDS011;46042;49.444;6.862;2022-10-16T15:48:32;20.65;;;7.32;;
60169;SDS011;46042;49.444;6.862;2022-10-16T15:51:00;13.02;;;6.00;;
60169;SDS011;46042;49.444;6.862;2022-10-16T15:53:31;8.38;;;4.70;;
60169;SDS011;46042;49.444;6.862;2022-10-16T15:56:00;10.10;;;4.18;;
60169;SDS011;46042;49.444;6.862;2022-10-16T15:58:30;8.45;;;3.72;;
60169;SDS011;46042;49.444;6.862;2022-10-16T16:00:57;5.88;;;3.70;;
60169;SDS011;46042;49.444;6.862;2022-10-16T16:03:27;8.80;;;3.60;;
60169;SDS011;46042;49.444;6.862;2022-10-16T16:05:55;7.13;;;3.53;;
60169;SDS011;46042;49.444;6.862;2022-10-16T16:08:22;13.52;;;5.43;;
60169;SDS011;46042;49.444;6.862;2022-10-16T16:11:04;10.43;;;6.28;;
60169;SDS011;46042;49.444;6.862;2022-10-16T16:13:40;19.02;;;4.30;;
60169;SDS011;46042;49.444;6.862;2022-10-16T16:16:08;12.88;;;4.15;;
60169;SDS011;46042;49.444;6.862;2022-10-16T16:18:36;13.82;;;5.35;;
60169;SDS011;46042;49.444;6.862;2022-10-16T16:21:03;18.25;;;7.65;;
60169;SDS011;46042;49.444;6.862;2022-10-16T16:23:31;17.83;;;6.95;;
60169;SDS011;46042;49.444;6.862;2022-10-16T16:28:38;11.75;;;6.05;;
60169;SDS011;46042;49.444;6.862;2022-10-16T16:31:07;9.95;;;5.28;;
60169;SDS011;46042;49.444;6.862;2022-10-16T16:33:34;11.50;;;4.22;;
60169;SDS011;46042;49.444;6.862;2022-10-16T16:36:02;12.35;;;4.10;;
60169;SDS011;46042;49.444;6.862;2022-10-16T16:38:31;17.73;;;4.00;;
60169;SDS011;46042;49.444;6.862;2022-10-16T16:40:59;15.07;;;4.38;;
60169;SDS011;46042;49.444;6.862;2022-10-16T16:43:26;7.00;;;3.97;;
60169;SDS011;46042;49.444;6.862;2022-10-16T16:45:55;11.93;;;4.75;;
60169;SDS011;46042;49.444;6.862;2022-10-16T16:48:21;10.73;;;4.20;;
60169;SDS011;46042;49.444;6.862;2022-10-16T16:50:48;8.20;;;4.47;;
60169;SDS011;46042;49.444;6.862;2022-10-16T16:53:15;7.15;;;4.32;;
60169;SDS011;46042;49.444;6.862;2022-10-16T16:55:41;12.70;;;4.80;;
60169;SDS011;46042;49.444;6.862;2022-10-16T16:58:08;8.45;;;5.05;;
60169;SDS011;46042;49.444;6.862;2022-10-16T17:00:35;9.77;;;5.55;;
60169;SDS011;46042;49.444;6.862;2022-10-16T17:03:01;18.75;;;6.03;;
60169;SDS011;46042;49.444;6.862;2022-10-16T17:05:28;8.43;;;5.00;;
60169;SDS011;46042;49.444;6.862;2022-10-16T17:07:55;15.98;;;5.13;;
60169;SDS011;46042;49.444;6.862;2022-10-16T17:10:21;10.98;;;4.88;;
60169;SDS011;46042;49.444;6.862;2022-10-16T17:12:48;10.68;;;4.70;;
60169;SDS011;46042;49.444;6.862;2022-10-16T17:15:15;10.02;;;4.60;;
60169;SDS011;46042;49.444;6.862;2022-10-16T17:17:41;14.18;;;4.30;;
60169;SDS011;46042;49.444;6.862;2022-10-16T17:20:08;12.68;;;5.60;;